Time;durP1;ratioP1;P1;durP2;ratioP2;P2;SDS_P1;SDS_P2;PMS_P1;PMS_P2;Temp;Humidity;BMP_temperature;BMP_pressure;BME280_temperature;BME280_humidity;BME280_pressure;Samples;Min_cycle;Max_cycle;Signal;HPM_P1;HPM_P2
2021/11/25 00:00:46;;;;;;;32.90;18.85;;;2.00;99.90;;;;;;5054242;28;20208;-67
2021/11/25 00:03:13;;;;;;;29.67;18.48;;;1.90;99.90;;;;;;5054314;28;20200;-68
2021/11/25 00:05:39;;;;;;;28.40;17.50;;;1.90;99.90;;;;;;5054340;28;20232;-68
2021/11/25 00:08:06;;;;;;;34.38;18.55;;;1.90;99.90;;;;;;5054560;28;20204;-68
2021/11/25 00:10:34;;;;;;;29.35;17.10;;;1.90;99.90;;;;;;5054191;28;20542;-69
2021/11/25 00:13:00;;;;;;;35.03;17.58;;;2.00;99.90;;;;;;5053995;28;20200;-68
2021/11/25 00:15:27;;;;;;;32.03;19.48;;;2.00;99.90;;;;;;5054088;28;20204;-68
2021/11/25 00:17:54;;;;;;;30.88;17.60;;;1.90;99.90;;;;;;5054029;28;20565;-68
2021/11/25 00:20:21;;;;;;;31.67;18.23;;;1.90;99.90;;;;;;5052728;28;20204;-68
2021/11/25 00:22:48;;;;;;;34.67;18.90;;;1.90;99.90;;;;;;5053951;28;20577;-68
2021/11/25 00:25:14;;;;;;;29.35;18.30;;;1.90;99.90;;;;;;5053922;28;20212;-68
2021/11/25 00:27:41;;;;;;;32.35;19.58;;;1.90;99.90;;;;;;5053687;28;20204;-68
2021/11/25 00:30:09;;;;;;;37.35;19.58;;;1.90;99.90;;;;;;5053854;28;20208;-68
2021/11/25 00:32:36;;;;;;;30.20;18.15;;;1.90;99.90;;;;;;5054051;28;20196;-68
2021/11/25 00:35:03;;;;;;;31.63;20.13;;;1.90;99.90;;;;;;5053808;28;20565;-68
2021/11/25 00:37:30;;;;;;;32.70;19.30;;;1.90;99.90;;;;;;5052416;28;20204;-68
2021/11/25 00:39:56;;;;;;;32.63;18.40;;;1.80;99.90;;;;;;5053615;28;20208;-68
2021/11/25 00:42:23;;;;;;;35.38;18.58;;;1.80;99.90;;;;;;5053596;28;20204;-68
2021/11/25 00:44:49;;;;;;;34.72;20.35;;;1.80;99.90;;;;;;5053745;28;20200;-68
2021/11/25 00:47:16;;;;;;;31.60;19.77;;;1.90;99.90;;;;;;5052387;28;20200;-67
2021/11/25 00:49:42;;;;;;;27.85;17.58;;;1.90;99.90;;;;;;5053320;28;20285;-67
2021/11/25 00:52:09;;;;;;;33.78;19.35;;;1.80;99.90;;;;;;5052043;28;20205;-68
2021/11/25 00:54:35;;;;;;;32.40;17.88;;;1.80;99.90;;;;;;5053114;28;20714;-68
2021/11/25 00:57:02;;;;;;;36.58;18.20;;;1.90;99.90;;;;;;5053280;28;20573;-66
2021/11/25 00:59:28;;;;;;;29.70;16.42;;;1.90;99.90;;;;;;5053482;28;20200;-67
2021/11/25 01:01:55;;;;;;;33.38;19.10;;;1.90;99.90;;;;;;5053132;28;20196;-67
2021/11/25 01:04:23;;;;;;;33.42;18.50;;;1.90;99.90;;;;;;5053249;28;20279;-68
2021/11/25 01:06:49;;;;;;;31.40;18.35;;;1.90;99.90;;;;;;5051918;28;20220;-67
2021/11/25 01:09:16;;;;;;;30.13;17.92;;;1.90;99.90;;;;;;5053382;28;20201;-67
2021/11/25 01:11:43;;;;;;;35.65;19.58;;;2.00;99.90;;;;;;5052422;28;20209;-67
2021/11/25 01:14:11;;;;;;;35.20;19.52;;;2.10;99.90;;;;;;5052957;28;20201;-67
2021/11/25 01:16:38;;;;;;;32.28;18.98;;;2.10;99.90;;;;;;5053011;28;20205;-67
2021/11/25 01:19:04;;;;;;;32.72;18.15;;;2.20;99.90;;;;;;5053455;28;20201;-67
2021/11/25 01:21:31;;;;;;;35.88;17.35;;;2.10;99.90;;;;;;5053214;28;20557;-67
2021/11/25 01:23:57;;;;;;;29.25;18.52;;;2.10;99.90;;;;;;5053250;28;20196;-68
2021/11/25 01:26:24;;;;;;;29.70;18.83;;;2.00;99.90;;;;;;5053378;28;20220;-67
2021/11/25 01:28:50;;;;;;;30.67;18.08;;;2.00;99.90;;;;;;5051742;28;20201;-67
2021/11/25 01:31:17;;;;;;;29.20;17.40;;;2.00;99.90;;;;;;5052893;28;20211;-67
2021/11/25 01:33:43;;;;;;;29.15;17.88;;;2.10;99.90;;;;;;5053138;28;20606;-67
2021/11/25 01:36:10;;;;;;;30.80;17.85;;;2.10;99.90;;;;;;5052896;28;20644;-67
2021/11/25 01:38:36;;;;;;;31.98;18.45;;;2.10;99.90;;;;;;5052864;28;20201;-67
2021/11/25 01:41:03;;;;;;;32.15;19.00;;;2.20;99.90;;;;;;5052953;28;20197;-67
2021/11/25 01:43:30;;;;;;;37.92;20.73;;;2.10;99.90;;;;;;5051795;28;20208;-67
2021/11/25 01:45:57;;;;;;;26.00;17.10;;;2.10;99.90;;;;;;5052835;28;20220;-67
2021/11/25 01:48:24;;;;;;;29.27;17.92;;;2.10;99.90;;;;;;5053108;28;20200;-68
2021/11/25 01:50:52;;;;;;;29.65;17.98;;;2.00;99.90;;;;;;5052613;28;20285;-68
2021/11/25 01:53:19;;;;;;;27.55;18.02;;;2.10;99.90;;;;;;5052471;28;20228;-68
2021/11/25 01:55:46;;;;;;;30.10;17.67;;;2.10;99.90;;;;;;5052708;28;20205;-68
2021/11/25 01:58:13;;;;;;;28.25;18.52;;;2.10;99.90;;;;;;5053093;28;20201;-68
2021/11/25 02:00:50;;;;;;;32.88;19.35;;;2.10;99.90;;;;;;5053265;28;20205;-68
2021/11/25 02:03:17;;;;;;;29.40;16.42;;;2.10;99.90;;;;;;5052570;28;20629;-68
2021/11/25 02:05:44;;;;;;;30.92;18.63;;;2.10;99.90;;;;;;5052869;28;20224;-68
2021/11/25 02:08:11;;;;;;;28.00;17.00;;;2.10;99.90;;;;;;5052565;28;20201;-68
2021/11/25 02:10:42;;;;;;;34.13;18.27;;;2.10;99.90;;;;;;5052992;28;20211;-68
2021/11/25 02:13:09;;;;;;;35.60;19.27;;;2.10;99.90;;;;;;5052610;28;20566;-68
2021/11/25 02:15:37;;;;;;;31.65;18.30;;;2.10;99.90;;;;;;5053024;28;20216;-67
2021/11/25 02:18:05;;;;;;;30.60;18.67;;;2.00;99.90;;;;;;5051575;28;20200;-67
2021/11/25 02:20:39;;;;;;;33.42;18.02;;;2.00;99.90;;;;;;5052681;28;20262;-67
2021/11/25 02:23:07;;;;;;;33.05;19.75;;;2.00;99.90;;;;;;5055945;28;20551;-67
2021/11/25 02:25:34;;;;;;;32.10;19.80;;;2.00;99.90;;;;;;5056013;28;20220;-67
2021/11/25 02:28:00;;;;;;;33.78;19.33;;;2.10;99.90;;;;;;5055820;28;20283;-67
2021/11/25 02:30:27;;;;;;;36.90;18.90;;;2.20;99.90;;;;;;5056511;28;20200;-67
2021/11/25 02:32:54;;;;;;;34.13;19.48;;;2.10;99.90;;;;;;5056404;28;20204;-67
2021/11/25 02:35:24;;;;;;;34.35;19.15;;;2.10;99.90;;;;;;5055298;28;20659;-66
2021/11/25 02:37:53;;;;;;;30.10;18.30;;;2.10;99.90;;;;;;5056127;28;20177;-66
2021/11/25 02:40:32;;;;;;;29.77;16.55;;;2.10;99.90;;;;;;5056686;28;20200;-67
2021/11/25 02:43:02;;;;;;;29.80;18.20;;;2.10;99.90;;;;;;5056709;28;20207;-67
2021/11/25 02:45:31;;;;;;;33.35;18.98;;;2.00;99.90;;;;;;5056161;28;20239;-67
2021/11/25 02:47:58;;;;;;;30.88;17.60;;;2.00;99.90;;;;;;5056162;28;20200;-67
2021/11/25 02:50:26;;;;;;;36.33;18.70;;;1.90;99.90;;;;;;5055694;28;20704;-67
2021/11/25 02:52:52;;;;;;;31.58;19.27;;;1.90;99.90;;;;;;5054626;28;20205;-67
2021/11/25 02:55:20;;;;;;;31.33;19.08;;;1.90;99.90;;;;;;5055856;28;20204;-67
2021/11/25 02:57:47;;;;;;;32.42;18.05;;;1.90;99.90;;;;;;5055756;28;20219;-67
2021/11/25 03:00:30;;;;;;;32.28;18.30;;;2.00;99.90;;;;;;5055633;28;20211;-67
2021/11/25 03:03:02;;;;;;;35.63;20.23;;;2.00;99.90;;;;;;5056296;28;20200;-67
2021/11/25 03:05:29;;;;;;;36.13;19.40;;;2.10;99.90;;;;;;5055737;28;20217;-67
2021/11/25 03:07:59;;;;;;;31.27;17.77;;;2.10;99.90;;;;;;5056148;28;20616;-67
2021/11/25 03:10:26;;;;;;;38.40;19.75;;;2.10;99.90;;;;;;5055791;28;20181;-68
2021/11/25 03:12:52;;;;;;;32.25;18.45;;;2.00;99.90;;;;;;5055811;28;20201;-68
2021/11/25 03:15:19;;;;;;;34.80;20.65;;;2.00;99.90;;;;;;5056099;28;20246;-68
2021/11/25 03:17:45;;;;;;;32.40;19.45;;;2.00;99.90;;;;;;5055896;28;20208;-68
2021/11/25 03:20:12;;;;;;;27.30;16.92;;;2.00;99.90;;;;;;5055620;28;20834;-68
2021/11/25 03:22:39;;;;;;;31.40;18.92;;;2.00;99.90;;;;;;5055648;28;20559;-68
2021/11/25 03:25:06;;;;;;;29.65;18.20;;;2.00;99.90;;;;;;5054321;28;20771;-68
2021/11/25 03:27:33;;;;;;;30.33;18.80;;;2.00;99.90;;;;;;5054215;28;20552;-68
2021/11/25 03:29:59;;;;;;;35.83;19.20;;;2.00;99.90;;;;;;5055192;28;20208;-68
2021/11/25 03:32:26;;;;;;;34.28;19.77;;;2.00;99.90;;;;;;5055148;28;20215;-68
2021/11/25 03:34:52;;;;;;;28.98;17.20;;;2.00;99.90;;;;;;5053340;28;20257;-68
2021/11/25 03:37:19;;;;;;;30.77;18.42;;;2.00;99.90;;;;;;5054981;28;20212;-67
2021/11/25 03:39:45;;;;;;;33.38;19.25;;;2.00;99.90;;;;;;5055055;28;20201;-67
2021/11/25 03:42:12;;;;;;;32.78;18.42;;;2.00;99.90;;;;;;5054517;28;20228;-67
2021/11/25 03:44:40;;;;;;;36.90;18.33;;;2.00;99.90;;;;;;5055379;28;20204;-67
2021/11/25 03:47:07;;;;;;;33.92;19.13;;;2.10;99.90;;;;;;5054906;28;20232;-68
2021/11/25 03:49:33;;;;;;;33.80;18.92;;;2.10;99.90;;;;;;5054906;28;20229;-68
2021/11/25 03:51:59;;;;;;;34.40;20.10;;;2.10;99.90;;;;;;5054414;28;20207;-67
2021/11/25 03:54:26;;;;;;;27.77;18.20;;;2.00;99.90;;;;;;5054551;28;20703;-68
2021/11/25 03:56:52;;;;;;;29.05;17.70;;;2.10;99.90;;;;;;5054745;28;20208;-68
2021/11/25 03:59:19;;;;;;;31.92;18.88;;;2.10;99.90;;;;;;5054466;28;20318;-68
2021/11/25 04:01:45;;;;;;;31.35;18.92;;;2.10;99.90;;;;;;5054736;28;20593;-68
2021/11/25 04:04:12;;;;;;;32.25;18.38;;;2.10;99.90;;;;;;5055117;28;20269;-68
2021/11/25 04:06:38;;;;;;;32.50;18.80;;;2.20;99.90;;;;;;5054380;28;20224;-68
2021/11/25 04:09:05;;;;;;;35.88;20.05;;;2.20;99.90;;;;;;5053232;28;20209;-68
2021/11/25 04:11:32;;;;;;;33.80;18.52;;;2.20;99.90;;;;;;5055061;28;20374;-68
2021/11/25 04:14:02;;;;;;;33.70;20.20;;;2.20;99.90;;;;;;5053227;28;20219;-68
2021/11/25 04:16:28;;;;;;;35.22;19.60;;;2.20;99.90;;;;;;5053115;28;20204;-68
2021/11/25 04:18:55;;;;;;;36.92;19.88;;;2.20;99.90;;;;;;5054410;28;20208;-68
2021/11/25 04:21:21;;;;;;;30.60;19.00;;;2.10;99.90;;;;;;5054318;28;20612;-68
2021/11/25 04:23:48;;;;;;;38.38;22.30;;;2.10;99.90;;;;;;5054359;28;20289;-68
2021/11/25 04:26:14;;;;;;;34.55;20.05;;;2.00;99.90;;;;;;5054152;28;20224;-68
2021/11/25 04:28:41;;;;;;;37.25;19.05;;;2.00;99.90;;;;;;5054503;28;20204;-68
2021/11/25 04:36:37;;;;;;;35.40;19.52;;;2.10;99.90;;;;;;5054119;28;20189;-68
2021/11/25 04:39:06;;;;;;;35.22;19.38;;;2.10;99.90;;;;;;5054123;28;20216;-68
2021/11/25 04:41:33;;;;;;;40.47;20.48;;;2.10;99.90;;;;;;5054339;28;20215;-68
2021/11/25 04:44:00;;;;;;;34.97;20.45;;;2.10;99.90;;;;;;5053574;28;20209;-68
2021/11/25 04:46:27;;;;;;;33.47;20.38;;;2.10;99.90;;;;;;5052815;28;20224;-68
2021/11/25 04:48:54;;;;;;;38.00;19.73;;;2.10;99.90;;;;;;5052500;28;20196;-69
2021/11/25 04:51:21;;;;;;;50.25;25.02;;;2.10;99.90;;;;;;5053414;28;20628;-69
2021/11/25 04:53:47;;;;;;;38.88;21.10;;;2.00;99.90;;;;;;5053525;28;20216;-68
2021/11/25 04:56:14;;;;;;;36.85;21.52;;;2.00;99.90;;;;;;5053861;28;20265;-68
2021/11/25 04:58:40;;;;;;;33.08;20.52;;;2.00;99.90;;;;;;5053553;28;20212;-67
2021/11/25 05:01:07;;;;;;;34.95;19.50;;;2.00;99.90;;;;;;5054030;28;20201;-66
2021/11/25 05:03:34;;;;;;;36.30;20.83;;;2.00;99.90;;;;;;5053803;28;20200;-66
2021/11/25 05:06:00;;;;;;;38.75;19.77;;;2.00;99.90;;;;;;5053903;28;20217;-66
2021/11/25 05:08:26;;;;;;;28.77;18.58;;;2.00;99.90;;;;;;5054029;28;20208;-66
2021/11/25 05:10:53;;;;;;;39.35;22.10;;;2.10;99.90;;;;;;5053808;28;20201;-66
2021/11/25 05:13:19;;;;;;;36.92;20.65;;;2.10;99.90;;;;;;5052783;28;20203;-66
2021/11/25 05:15:46;;;;;;;39.97;22.35;;;2.10;99.90;;;;;;5053551;28;20201;-66
2021/11/25 05:18:13;;;;;;;35.67;19.17;;;2.10;99.90;;;;;;5053813;28;20668;-66
2021/11/25 05:20:40;;;;;;;34.33;19.50;;;2.20;99.90;;;;;;5053296;28;20205;-66
2021/11/25 05:23:06;;;;;;;36.20;20.40;;;2.10;99.90;;;;;;5053739;28;20210;-66
2021/11/25 05:25:33;;;;;;;40.33;22.23;;;2.10;99.90;;;;;;5053269;28;20283;-66
2021/11/25 05:27:59;;;;;;;42.10;21.85;;;2.00;99.90;;;;;;5053489;28;20197;-67
2021/11/25 05:30:31;;;;;;;56.05;23.23;;;2.00;99.90;;;;;;5053013;28;20219;-67
2021/11/25 05:33:02;;;;;;;36.08;20.42;;;2.10;99.90;;;;;;5053635;28;20192;-67
2021/11/25 05:35:29;;;;;;;39.72;19.80;;;2.10;99.90;;;;;;5053238;28;20524;-66
2021/11/25 05:37:56;;;;;;;47.17;22.58;;;2.10;99.90;;;;;;5053530;28;20553;-68
2021/11/25 05:40:23;;;;;;;36.72;21.60;;;2.10;99.90;;;;;;5053206;28;20279;-68
2021/11/25 05:42:50;;;;;;;38.92;20.50;;;2.10;99.90;;;;;;5053389;28;20220;-68
2021/11/25 05:45:19;;;;;;;35.65;21.40;;;2.10;99.90;;;;;;5053309;28;20208;-68
2021/11/25 05:47:47;;;;;;;35.95;20.40;;;2.10;99.90;;;;;;5053544;28;20213;-68
2021/11/25 05:50:17;;;;;;;48.28;23.00;;;2.10;99.90;;;;;;5053315;28;20228;-68
2021/11/25 05:52:46;;;;;;;45.47;20.50;;;2.10;99.90;;;;;;5053197;28;20216;-68
2021/11/25 05:55:13;;;;;;;40.47;21.60;;;2.10;99.90;;;;;;5053158;28;20211;-68
2021/11/25 05:57:39;;;;;;;35.33;19.90;;;2.10;99.90;;;;;;5056312;28;20679;-68
2021/11/25 06:00:10;;;;;;;38.65;22.20;;;2.10;99.90;;;;;;5057081;28;20661;-68
2021/11/25 06:02:38;;;;;;;37.53;20.67;;;2.10;99.90;;;;;;5057156;28;20205;-68
2021/11/25 06:05:05;;;;;;;37.45;19.92;;;2.10;99.90;;;;;;5056835;28;20611;-68
2021/11/25 06:07:32;;;;;;;40.88;23.13;;;2.20;99.90;;;;;;5056767;28;20235;-68
2021/11/25 06:09:59;;;;;;;44.90;23.83;;;2.20;99.90;;;;;;5055804;28;20200;-68
2021/11/25 06:12:25;;;;;;;39.50;21.50;;;2.20;99.90;;;;;;5056060;28;20208;-68
2021/11/25 06:14:52;;;;;;;42.15;22.02;;;2.30;99.90;;;;;;5056871;28;20321;-68
2021/11/25 06:17:18;;;;;;;35.45;20.15;;;2.30;99.90;;;;;;5055439;28;20683;-67
2021/11/25 06:19:45;;;;;;;38.95;20.35;;;2.30;99.90;;;;;;5056904;28;20209;-67
2021/11/25 06:22:11;;;;;;;44.17;20.88;;;2.30;99.90;;;;;;5056858;28;20204;-67
2021/11/25 06:24:38;;;;;;;34.45;20.90;;;2.30;99.90;;;;;;5056238;28;20205;-67
2021/11/25 06:27:05;;;;;;;42.63;22.17;;;2.30;99.90;;;;;;5056047;28;20228;-67
2021/11/25 06:29:31;;;;;;;41.80;22.92;;;2.30;99.90;;;;;;5056162;28;20197;-68
2021/11/25 06:31:58;;;;;;;35.33;21.02;;;2.30;99.90;;;;;;5056555;28;20205;-69
2021/11/25 06:34:24;;;;;;;40.53;20.30;;;2.30;99.90;;;;;;5056296;28;20569;-68
2021/11/25 06:36:51;;;;;;;36.63;20.88;;;2.30;99.90;;;;;;5055984;28;20682;-68
2021/11/25 06:39:17;;;;;;;35.85;21.00;;;2.20;99.90;;;;;;5056114;28;20208;-68
2021/11/25 06:41:44;;;;;;;38.58;20.83;;;2.20;99.90;;;;;;5056178;28;20211;-68
2021/11/25 06:44:10;;;;;;;35.75;18.73;;;2.20;99.90;;;;;;5055727;28;20601;-68
2021/11/25 06:46:40;;;;;;;30.58;19.90;;;2.30;99.90;;;;;;5055605;28;20227;-69
2021/11/25 06:49:06;;;;;;;40.85;21.67;;;2.40;99.90;;;;;;5056037;28;20243;-68
2021/11/25 06:51:33;;;;;;;33.03;19.70;;;2.40;99.90;;;;;;5054819;28;20200;-68
2021/11/25 06:53:59;;;;;;;40.05;21.90;;;2.40;99.90;;;;;;5055696;28;20700;-69
2021/11/25 06:56:27;;;;;;;46.97;23.33;;;2.40;99.90;;;;;;5055781;28;20205;-68
2021/11/25 06:58:55;;;;;;;37.85;23.05;;;2.40;99.90;;;;;;5055644;28;20200;-68
2021/11/25 07:01:24;;;;;;;50.28;25.08;;;2.40;99.90;;;;;;5055685;28;20200;-68
2021/11/25 07:03:51;;;;;;;41.10;23.80;;;2.30;99.90;;;;;;5055703;28;20204;-68
2021/11/25 07:06:17;;;;;;;42.20;23.85;;;2.30;99.90;;;;;;5056138;28;20274;-68
2021/11/25 07:08:44;;;;;;;46.92;24.40;;;2.30;99.90;;;;;;5055340;28;20204;-67
2021/11/25 07:11:10;;;;;;;37.60;24.25;;;2.30;99.90;;;;;;5055456;28;20203;-67
2021/11/25 07:13:37;;;;;;;43.55;24.30;;;2.30;99.90;;;;;;5055523;28;20205;-68
2021/11/25 07:16:04;;;;;;;37.42;22.33;;;2.40;99.90;;;;;;5053987;28;20197;-68
2021/11/25 07:18:30;;;;;;;44.33;20.63;;;2.40;99.90;;;;;;5055104;28;20682;-68
2021/11/25 07:20:58;;;;;;;36.88;20.58;;;2.40;99.90;;;;;;5054164;28;20204;-68
2021/11/25 07:23:25;;;;;;;35.17;22.25;;;2.40;99.90;;;;;;5055285;28;20205;-68
2021/11/25 07:25:52;;;;;;;37.42;21.70;;;2.50;99.90;;;;;;5055151;28;20219;-67
2021/11/25 07:28:19;;;;;;;39.63;22.13;;;2.40;99.90;;;;;;5055272;28;20589;-67
2021/11/25 07:30:46;;;;;;;37.03;22.85;;;2.40;99.90;;;;;;5055166;28;20196;-68
2021/11/25 07:33:13;;;;;;;33.08;21.23;;;2.40;99.90;;;;;;5055143;28;20215;-68
2021/11/25 07:35:43;;;;;;;35.85;21.58;;;2.40;99.90;;;;;;5055385;28;20196;-68
2021/11/25 07:38:10;;;;;;;29.00;18.75;;;2.40;99.90;;;;;;5055185;28;20211;-68
2021/11/25 07:40:37;;;;;;;38.47;26.35;;;2.40;99.90;;;;;;5053580;28;20201;-68
2021/11/25 07:43:04;;;;;;;30.70;19.55;;;2.40;99.90;;;;;;5055350;28;20220;-68
2021/11/25 07:45:32;;;;;;;37.38;22.95;;;2.40;99.90;;;;;;5054980;28;20595;-68
2021/11/25 07:47:58;;;;;;;34.08;21.48;;;2.40;99.90;;;;;;5054805;28;20680;-68
2021/11/25 07:50:26;;;;;;;34.88;21.50;;;2.40;99.90;;;;;;5054387;28;20232;-68
2021/11/25 07:52:54;;;;;;;36.70;21.80;;;2.50;99.90;;;;;;5054771;28;20204;-68
2021/11/25 07:55:20;;;;;;;38.75;22.75;;;2.50;99.90;;;;;;5054710;28;20231;-67
2021/11/25 07:57:49;;;;;;;34.00;21.63;;;2.50;99.90;;;;;;5054617;28;20274;-68
2021/11/25 08:00:17;;;;;;;38.75;22.38;;;2.50;99.90;;;;;;5054523;28;20197;-68
2021/11/25 08:02:44;;;;;;;30.05;19.02;;;2.50;99.90;;;;;;5054536;28;20571;-68
2021/11/25 08:05:11;;;;;;;35.20;20.88;;;2.50;99.90;;;;;;5054370;28;20204;-68
2021/11/25 08:07:39;;;;;;;31.85;19.90;;;2.50;99.90;;;;;;5054105;28;20689;-68
2021/11/25 08:10:09;;;;;;;32.45;21.33;;;2.50;99.90;;;;;;5053318;28;20652;-68
2021/11/25 08:12:35;;;;;;;42.08;23.85;;;2.60;99.90;;;;;;5054754;28;20325;-68
2021/11/25 08:15:03;;;;;;;39.00;22.65;;;2.60;99.90;;;;;;5054120;28;20193;-68
2021/11/25 08:17:29;;;;;;;33.90;22.05;;;2.60;99.90;;;;;;5054025;28;20212;-68
2021/11/25 08:19:56;;;;;;;36.15;21.95;;;2.70;99.90;;;;;;5053898;28;20212;-68
2021/11/25 08:22:22;;;;;;;32.33;22.38;;;2.80;99.90;;;;;;5053806;28;20219;-67
2021/11/25 08:24:49;;;;;;;36.20;22.73;;;2.80;99.90;;;;;;5054142;28;20607;-68
2021/11/25 08:27:15;;;;;;;37.03;21.83;;;2.90;99.90;;;;;;5053822;28;20220;-68
2021/11/25 08:29:43;;;;;;;34.47;21.98;;;2.90;99.90;;;;;;5053659;28;20660;-68
2021/11/25 08:32:10;;;;;;;37.85;23.85;;;2.90;99.90;;;;;;5053677;28;20201;-68
2021/11/25 08:34:37;;;;;;;45.67;24.85;;;2.90;99.90;;;;;;5053446;28;20616;-68
2021/11/25 08:37:03;;;;;;;37.33;23.00;;;3.00;99.90;;;;;;5053868;28;20262;-68
2021/11/25 08:39:30;;;;;;;38.00;22.10;;;3.00;99.90;;;;;;5053723;28;20207;-68
2021/11/25 08:41:56;;;;;;;35.85;22.90;;;2.90;99.90;;;;;;5053661;28;20266;-68
2021/11/25 08:44:23;;;;;;;37.17;23.77;;;2.90;99.90;;;;;;5053664;28;20213;-68
2021/11/25 08:46:49;;;;;;;30.67;20.23;;;2.90;99.90;;;;;;5053752;28;20238;-68
2021/11/25 08:49:16;;;;;;;35.10;21.58;;;3.00;99.90;;;;;;5053341;28;20232;-68
2021/11/25 08:51:42;;;;;;;34.13;20.17;;;3.00;99.90;;;;;;5053499;28;20196;-68
2021/11/25 08:54:09;;;;;;;35.88;21.85;;;3.00;99.90;;;;;;5053496;28;20718;-68
2021/11/25 08:56:35;;;;;;;32.85;22.38;;;3.00;99.90;;;;;;5053297;28;20664;-68
2021/11/25 08:59:02;;;;;;;33.15;20.42;;;3.00;99.90;;;;;;5053534;28;20254;-68
2021/11/25 09:01:28;;;;;;;38.35;21.15;;;3.00;99.90;;;;;;5053262;28;20552;-69
2021/11/25 09:03:55;;;;;;;33.15;20.27;;;3.00;99.90;;;;;;5053167;28;20238;-68
2021/11/25 09:06:21;;;;;;;45.63;22.95;;;3.00;99.90;;;;;;5053268;28;20208;-68
2021/11/25 09:08:48;;;;;;;36.17;21.00;;;3.00;99.90;;;;;;5053235;28;20216;-71
2021/11/25 09:11:15;;;;;;;33.80;20.35;;;3.00;99.90;;;;;;5052943;28;20674;-67
2021/11/25 09:13:42;;;;;;;34.40;20.58;;;3.00;99.90;;;;;;5053454;28;20717;-67
2021/11/25 09:16:09;;;;;;;30.85;20.48;;;3.00;99.90;;;;;;5053363;28;20267;-67
2021/11/25 09:18:35;;;;;;;39.20;23.73;;;2.90;99.90;;;;;;5053194;28;20211;-68
2021/11/25 09:21:02;;;;;;;33.00;21.17;;;2.90;99.90;;;;;;5053361;28;20208;-68
2021/11/25 09:23:28;;;;;;;32.72;21.13;;;3.00;99.90;;;;;;5051985;28;20564;-67
2021/11/25 09:25:55;;;;;;;35.17;21.60;;;3.10;99.90;;;;;;5052049;28;20262;-68
2021/11/25 09:28:25;;;;;;;33.58;21.42;;;3.00;99.90;;;;;;5053509;28;20701;-67
2021/11/25 09:30:52;;;;;;;35.42;23.73;;;3.00;99.90;;;;;;5053730;28;20201;-68
2021/11/25 09:33:19;;;;;;;40.95;23.83;;;3.00;99.90;;;;;;5057592;28;20211;-68
2021/11/25 09:35:46;;;;;;;40.88;23.80;;;2.90;99.90;;;;;;5057075;28;20200;-68
2021/11/25 09:38:13;;;;;;;48.58;27.42;;;2.90;99.90;;;;;;5057081;28;20204;-68
2021/11/25 09:40:43;;;;;;;40.47;25.95;;;2.90;99.90;;;;;;5056242;28;20204;-68
2021/11/25 09:43:14;;;;;;;45.70;29.00;;;3.00;99.90;;;;;;5057199;28;20201;-68
2021/11/25 09:45:43;;;;;;;38.88;25.05;;;3.00;99.90;;;;;;5057471;28;20258;-68
2021/11/25 09:48:11;;;;;;;42.42;25.67;;;3.00;99.90;;;;;;5055621;28;20228;-68
2021/11/25 09:50:44;;;;;;;45.40;24.77;;;3.10;99.90;;;;;;5056668;28;20228;-68
2021/11/25 09:53:13;;;;;;;44.83;28.15;;;3.00;99.90;;;;;;5057017;28;20221;-68
2021/11/25 09:55:46;;;;;;;46.90;27.08;;;3.10;99.90;;;;;;5056668;28;20196;-68
2021/11/25 09:58:15;;;;;;;53.05;25.20;;;3.00;99.90;;;;;;5056508;28;20208;-68
2021/11/25 10:00:44;;;;;;;42.03;24.50;;;3.00;99.90;;;;;;5057061;28;20208;-68
2021/11/25 10:03:15;;;;;;;55.45;30.48;;;3.10;99.90;;;;;;5056695;28;20596;-68
2021/11/25 10:05:46;;;;;;;43.28;25.42;;;3.00;99.90;;;;;;5056593;28;20554;-68
2021/11/25 10:08:30;;;;;;;43.70;26.40;;;3.00;99.90;;;;;;5057131;28;20223;-67
2021/11/25 10:11:19;;;;;;;43.47;27.20;;;3.10;99.90;;;;;;5056630;28;20185;-67
2021/11/25 10:13:58;;;;;;;53.97;31.77;;;3.20;99.90;;;;;;5055037;28;20208;-68
2021/11/25 10:16:28;;;;;;;48.58;27.42;;;3.20;99.90;;;;;;5056174;28;20227;-68
2021/11/25 10:18:57;;;;;;;44.83;27.20;;;3.00;99.90;;;;;;5056405;28;20197;-67
2021/11/25 10:21:28;;;;;;;48.03;27.42;;;3.00;99.90;;;;;;5056230;28;20209;-68
2021/11/25 10:23:56;;;;;;;43.00;24.58;;;3.00;99.90;;;;;;5056607;28;20270;-68
2021/11/25 10:26:28;;;;;;;50.72;26.25;;;3.10;99.90;;;;;;5056759;28;20274;-68
2021/11/25 10:28:58;;;;;;;46.67;26.20;;;3.10;99.90;;;;;;5056139;28;20212;-68
2021/11/25 10:31:29;;;;;;;43.00;26.35;;;3.10;99.90;;;;;;5056324;28;20239;-68
2021/11/25 10:34:01;;;;;;;49.92;26.98;;;3.10;99.90;;;;;;5056630;28;20459;-68
2021/11/25 10:41:59;;;;;;;49.08;25.77;;;3.10;99.90;;;;;;5056179;28;20193;-67
2021/11/25 10:44:33;;;;;;;43.65;26.83;;;3.20;99.90;;;;;;5056239;28;20185;-67
2021/11/25 10:47:23;;;;;;;45.75;25.92;;;3.10;99.90;;;;;;5056317;28;20608;-67
2021/11/25 10:50:00;;;;;;;43.00;25.27;;;3.20;99.90;;;;;;5055605;28;20232;-67
2021/11/25 10:52:40;;;;;;;42.78;26.58;;;3.10;99.90;;;;;;5056174;28;20200;-67
2021/11/25 10:55:13;;;;;;;38.15;23.48;;;3.10;99.90;;;;;;5055429;28;20738;-67
2021/11/25 10:57:47;;;;;;;55.20;30.83;;;3.10;99.90;;;;;;5055979;28;20208;-68
2021/11/25 11:00:24;;;;;;;51.42;28.90;;;3.10;99.90;;;;;;5056003;28;20557;-68
2021/11/25 11:03:05;;;;;;;52.22;32.03;;;3.20;99.90;;;;;;5054642;28;20207;-68
2021/11/25 11:06:03;;;;;;;48.50;28.90;;;3.30;99.90;;;;;;5055396;28;20664;-68
2021/11/25 11:08:40;;;;;;;62.60;36.22;;;3.30;99.90;;;;;;5055256;28;20668;-69
2021/11/25 11:11:07;;;;;;;56.22;34.30;;;3.30;99.90;;;;;;5055697;28;20675;-68
2021/11/25 11:14:00;;;;;;;45.80;26.05;;;3.30;99.90;;;;;;5055707;28;20200;-68
2021/11/25 11:16:41;;;;;;;43.80;25.30;;;3.20;99.90;;;;;;5054503;28;20200;-68
2021/11/25 11:19:11;;;;;;;50.30;29.48;;;3.10;99.90;;;;;;5055012;28;20668;-67
2021/11/25 11:21:48;;;;;;;45.92;26.63;;;3.00;99.90;;;;;;5055594;28;20196;-68
2021/11/25 11:24:16;;;;;;;43.72;26.38;;;3.10;99.90;;;;;;5054321;28;20621;-68
2021/11/25 11:26:55;;;;;;;52.90;29.73;;;3.00;99.90;;;;;;5055468;28;20231;-68
2021/11/25 11:29:24;;;;;;;44.10;24.55;;;2.90;99.90;;;;;;5055251;28;20519;-68
2021/11/25 11:31:53;;;;;;;44.25;26.10;;;3.00;99.90;;;;;;5054850;28;20204;-68
2021/11/25 11:34:19;;;;;;;39.90;24.35;;;3.00;99.90;;;;;;5055108;28;20269;-68
2021/11/25 11:36:51;;;;;;;49.97;27.98;;;3.20;99.90;;;;;;5054934;28;20689;-68
2021/11/25 11:39:21;;;;;;;46.97;25.77;;;3.10;99.90;;;;;;5055222;28;20196;-68
2021/11/25 11:41:54;;;;;;;38.33;24.13;;;3.10;99.90;;;;;;5054880;28;20203;-68
2021/11/25 11:44:23;;;;;;;42.85;25.98;;;3.10;99.90;;;;;;5055278;28;20223;-68
2021/11/25 11:46:52;;;;;;;38.50;23.95;;;3.10;99.90;;;;;;5054606;28;20193;-68
2021/11/25 11:49:23;;;;;;;40.92;25.30;;;3.00;99.90;;;;;;5054826;28;20306;-68
2021/11/25 11:52:12;;;;;;;50.08;24.60;;;3.00;99.90;;;;;;5055018;28;20589;-68
2021/11/25 11:54:43;;;;;;;44.22;24.98;;;3.00;99.90;;;;;;5053524;28;20232;-68
2021/11/25 11:57:31;;;;;;;53.10;26.80;;;3.00;99.90;;;;;;5054704;28;20211;-68
2021/11/25 12:00:05;;;;;;;41.72;26.40;;;3.00;99.90;;;;;;5054414;28;20209;-68
2021/11/25 12:02:42;;;;;;;43.25;24.05;;;3.10;99.90;;;;;;5054681;28;20181;-68
2021/11/25 12:05:10;;;;;;;39.03;24.85;;;3.20;99.90;;;;;;5053517;28;20208;-68
2021/11/25 12:07:37;;;;;;;35.55;21.98;;;3.10;99.90;;;;;;5054203;28;20223;-68
2021/11/25 12:10:05;;;;;;;39.70;25.65;;;3.10;99.90;;;;;;5054485;28;20660;-69
2021/11/25 12:12:31;;;;;;;39.47;23.63;;;3.00;99.90;;;;;;5054221;28;20204;-68
2021/11/25 12:14:59;;;;;;;41.45;23.92;;;2.90;99.90;;;;;;5054565;28;20204;-68
2021/11/25 12:17:36;;;;;;;40.63;24.75;;;2.90;99.90;;;;;;5054259;28;20204;-68
2021/11/25 12:20:18;;;;;;;35.55;22.00;;;2.80;99.90;;;;;;5053031;28;20188;-68
2021/11/25 12:22:50;;;;;;;37.80;21.15;;;2.90;99.90;;;;;;5054404;28;20599;-68
2021/11/25 12:25:40;;;;;;;40.88;24.58;;;2.70;99.90;;;;;;5053818;28;20207;-68
2021/11/25 12:28:28;;;;;;;50.90;23.20;;;2.80;99.90;;;;;;5054431;28;20223;-68
2021/11/25 12:31:10;;;;;;;38.88;23.30;;;2.80;99.90;;;;;;5054122;28;20207;-68
2021/11/25 12:33:40;;;;;;;39.92;23.55;;;2.80;99.90;;;;;;5052690;28;20204;-68
2021/11/25 12:36:08;;;;;;;37.78;23.63;;;2.80;99.90;;;;;;5073195;28;20202;-67
2021/11/25 12:38:36;;;;;;;36.88;20.88;;;2.80;99.90;;;;;;5073493;28;20659;-67
2021/11/25 12:41:06;;;;;;;37.35;23.20;;;2.80;99.90;;;;;;5072436;28;20664;-67
2021/11/25 12:43:37;;;;;;;35.80;21.15;;;2.90;99.90;;;;;;5073834;28;20211;-67
2021/11/25 12:46:12;;;;;;;30.88;20.83;;;2.90;99.90;;;;;;5073581;28;20204;-68
2021/11/25 12:48:48;;;;;;;37.15;20.88;;;3.00;99.90;;;;;;5073430;28;20551;-68
2021/11/25 12:51:22;;;;;;;34.35;21.65;;;2.90;99.90;;;;;;5073721;28;20200;-68
2021/11/25 12:53:50;;;;;;;35.08;21.60;;;2.90;99.90;;;;;;5073735;28;20256;-68